Time,TemperatureF,DewpointF,PressureIn,WindDirection,WindDirectionDegrees,WindSpeedMPH,WindSpeedGustMPH,Humidity,HourlyPrecipIn,Conditions,Clouds,dailyrainin,SoftwareType,DateUTC
2013-02-15 00:01:00,33.0,18.0,30.21,ESE,119,1.0,2.0,53,0.00,,,0.00,,2013-02-15 07:01:00,
2013-02-15 00:11:00,33.0,18.0,30.21,ESE,119,1.0,2.0,53,0.00,,,0.00,,2013-02-15 07:11:00,
2013-02-15 00:21:00,32.0,17.0,30.22,SSE,153,0.0,4.0,54,0.00,,,0.00,,2013-02-15 07:21:00,
2013-02-15 00:31:00,31.0,17.0,30.22,South,175,2.0,4.0,56,0.00,,,0.00,,2013-02-15 07:31:00,
2013-02-15 00:41:00,31.0,17.0,30.22,South,175,2.0,4.0,56,0.00,,,0.00,,2013-02-15 07:41:00,
2013-02-15 00:52:00,32.0,17.0,30.22,South,188,2.0,3.0,54,0.00,,,0.00,,2013-02-15 07:52:00,
2013-02-15 01:01:00,31.0,17.0,30.22,South,191,2.0,4.0,56,0.00,,,0.00,,2013-02-15 08:01:00,
2013-02-15 01:11:00,31.0,17.0,30.22,South,191,2.0,4.0,56,0.00,,,0.00,,2013-02-15 08:11:00,
2013-02-15 01:21:00,32.0,17.0,30.22,SSE,153,0.0,2.0,54,0.00,,,0.00,,2013-02-15 08:21:00,
2013-02-15 01:31:00,32.0,17.0,30.23,SSE,165,2.0,4.0,53,0.00,,,0.00,,2013-02-15 08:31:00,
2013-02-15 01:41:00,32.0,17.0,30.23,SSE,165,2.0,4.0,53,0.00,,,0.00,,2013-02-15 08:41:00,
2013-02-15 01:52:00,32.0,17.0,30.23,South,173,3.0,4.0,53,0.00,,,0.00,,2013-02-15 08:52:00,
2013-02-15 02:01:00,33.0,17.0,30.23,ESE,120,1.0,3.0,51,0.00,,,0.00,,2013-02-15 09:01:00,
2013-02-15 02:11:00,33.0,17.0,30.23,ESE,120,1.0,3.0,51,0.00,,,0.00,,2013-02-15 09:11:00,
2013-02-15 02:21:00,35.0,17.0,30.23,NE,42,5.0,8.0,48,0.00,,,0.00,,2013-02-15 09:21:00,
2013-02-15 02:31:00,35.0,17.0,30.22,NNE,24,3.0,8.0,47,0.00,,,0.00,,2013-02-15 09:31:00,
2013-02-15 02:41:00,35.0,17.0,30.22,NNE,24,3.0,8.0,47,0.00,,,0.00,,2013-02-15 09:41:00,
2013-02-15 02:52:00,35.0,17.0,30.22,NNE,26,0.0,6.0,48,0.00,,,0.00,,2013-02-15 09:52:00,
2013-02-15 03:01:00,32.0,16.0,30.23,South,186,3.0,4.0,51,0.00,,,0.00,,2013-02-15 10:01:00,
2013-02-15 03:11:00,32.0,16.0,30.23,South,186,3.0,4.0,51,0.00,,,0.00,,2013-02-15 10:11:00,
2013-02-15 03:21:00,32.0,16.0,30.23,South,186,2.0,3.0,51,0.00,,,0.00,,2013-02-15 10:21:00,
2013-02-15 03:31:00,31.0,16.0,30.22,South,187,2.0,4.0,54,0.00,,,0.00,,2013-02-15 10:31:00,
2013-02-15 03:41:00,31.0,16.0,30.22,South,187,2.0,4.0,54,0.00,,,0.00,,2013-02-15 10:41:00,
2013-02-15 03:52:00,32.0,16.0,30.22,South,182,1.0,2.0,52,0.00,,,0.00,,2013-02-15 10:52:00,
2013-02-15 04:01:00,31.0,16.0,30.22,South,183,1.0,4.0,54,0.00,,,0.00,,2013-02-15 11:01:00,
2013-02-15 04:11:00,31.0,16.0,30.22,South,183,1.0,4.0,54,0.00,,,0.00,,2013-02-15 11:11:00,
2013-02-15 04:22:00,31.0,16.0,30.22,SSE,168,1.0,2.0,54,0.00,,,0.00,,2013-02-15 11:22:00,
2013-02-15 04:31:00,31.0,16.0,30.21,SSE,165,1.0,4.0,54,0.00,,,0.00,,2013-02-15 11:31:00,
2013-02-15 04:42:00,31.0,16.0,30.21,SSE,165,1.0,4.0,54,0.00,,,0.00,,2013-02-15 11:42:00,
2013-02-15 04:52:00,30.0,16.0,30.24,SSW,194,2.0,4.0,56,0.00,,,0.00,,2013-02-15 11:52:00,
2013-02-15 05:01:00,30.0,17.0,30.24,SSW,194,0.0,4.0,57,0.00,,,0.00,,2013-02-15 12:01:00,
2013-02-15 05:11:00,30.0,17.0,30.24,SSW,194,0.0,4.0,57,0.00,,,0.00,,2013-02-15 12:11:00,
2013-02-15 05:21:00,30.0,16.0,30.24,SSW,194,3.0,4.0,56,0.00,,,0.00,,2013-02-15 12:21:00,
2013-02-15 05:31:00,30.0,16.0,30.24,SSW,194,3.0,4.0,55,0.00,,,0.00,,2013-02-15 12:31:00,
2013-02-15 05:42:00,30.0,16.0,30.24,SSW,194,3.0,4.0,55,0.00,,,0.00,,2013-02-15 12:42:00,
2013-02-15 05:52:00,31.0,16.0,30.24,South,176,2.0,4.0,54,0.00,,,0.00,,2013-02-15 12:52:00,
2013-02-15 06:02:00,31.0,17.0,30.24,South,169,1.0,4.0,56,0.00,,,0.00,,2013-02-15 13:02:00,
2013-02-15 06:11:00,30.0,17.0,30.24,NNE,22,1.0,5.0,57,0.00,,,0.00,,2013-02-15 13:11:00,
2013-02-15 06:21:00,30.0,17.0,30.24,NNE,22,1.0,5.0,57,0.00,,,0.00,,2013-02-15 13:21:00,
2013-02-15 06:31:00,29.0,16.0,30.24,ESE,109,1.0,4.0,59,0.00,,,0.00,,2013-02-15 13:31:00,
2013-02-15 06:41:00,29.0,16.0,30.24,ESE,109,1.0,4.0,59,0.00,,,0.00,,2013-02-15 13:41:00,
2013-02-15 06:52:00,29.0,16.0,30.25,SSE,155,1.0,5.0,59,0.00,,,0.00,,2013-02-15 13:52:00,
2013-02-15 07:01:00,29.0,18.0,30.25,SE,137,1.0,6.0,62,0.00,,,0.00,,2013-02-15 14:01:00,
2013-02-15 07:11:00,29.0,18.0,30.25,SE,137,1.0,6.0,62,0.00,,,0.00,,2013-02-15 14:11:00,
2013-02-15 07:21:00,30.0,18.0,30.25,SSE,156,2.0,5.0,60,0.00,,,0.00,,2013-02-15 14:21:00,
2013-02-15 07:31:00,29.0,17.0,30.25,SE,144,1.0,4.0,60,0.00,,,0.00,,2013-02-15 14:31:00,
2013-02-15 07:41:00,29.0,17.0,30.25,SE,144,1.0,4.0,60,0.00,,,0.00,,2013-02-15 14:41:00,
2013-02-15 07:52:00,29.0,17.0,30.26,South,174,0.0,5.0,60,0.00,,,0.00,,2013-02-15 14:52:00,
2013-02-15 08:01:00,30.0,17.0,30.26,South,178,1.0,4.0,58,0.00,,,0.00,,2013-02-15 15:01:00,
2013-02-15 08:11:00,30.0,17.0,30.26,South,178,1.0,4.0,58,0.00,,,0.00,,2013-02-15 15:11:00,
2013-02-15 08:21:00,31.0,18.0,30.26,South,177,1.0,2.0,58,0.00,,,0.00,,2013-02-15 15:21:00,
2013-02-15 08:32:00,33.0,19.0,30.27,South,177,1.0,4.0,57,0.00,,,0.00,,2013-02-15 15:32:00,
2013-02-15 08:41:00,36.0,20.0,30.28,South,174,2.0,4.0,51,0.00,,,0.00,,2013-02-15 15:41:00,
2013-02-15 08:52:00,36.0,20.0,30.28,South,174,2.0,4.0,51,0.00,,,0.00,,2013-02-15 15:52:00,
2013-02-15 09:01:00,38.0,19.0,30.29,East,87,1.0,3.0,46,0.00,,,0.00,,2013-02-15 16:01:00,
2013-02-15 09:21:00,38.0,19.0,30.30,NE,38,3.0,7.0,45,0.00,,,0.00,,2013-02-15 16:21:00,
2013-02-15 09:31:00,37.0,18.0,30.30,NE,34,4.0,8.0,45,0.00,,,0.00,,2013-02-15 16:31:00,
2013-02-15 09:42:00,37.0,18.0,30.30,NE,34,4.0,8.0,45,0.00,,,0.00,,2013-02-15 16:42:00,
2013-02-15 09:52:00,38.0,19.0,30.30,NE,38,2.0,5.0,46,0.00,,,0.00,,2013-02-15 16:52:00,
2013-02-15 10:01:00,39.0,19.0,30.31,NNE,21,4.0,7.0,45,0.00,,,0.00,,2013-02-15 17:01:00,
2013-02-15 10:11:00,40.0,19.0,30.31,East,87,3.0,8.0,43,0.00,,,0.00,,2013-02-15 17:11:00,
2013-02-15 10:21:00,40.0,19.0,30.31,East,87,3.0,8.0,43,0.00,,,0.00,,2013-02-15 17:21:00,
2013-02-15 10:31:00,41.0,19.0,30.30,NNE,16,3.0,7.0,41,0.00,,,0.00,,2013-02-15 17:31:00,
2013-02-15 10:41:00,41.0,19.0,30.30,NNE,16,3.0,7.0,41,0.00,,,0.00,,2013-02-15 17:41:00,
2013-02-15 10:52:00,42.0,19.0,30.30,NE,36,3.0,8.0,40,0.00,,,0.00,,2013-02-15 17:52:00,
2013-02-15 11:01:00,43.0,20.0,30.31,NNE,17,4.0,9.0,40,0.00,,,0.00,,2013-02-15 18:01:00,
2013-02-15 11:11:00,43.0,20.0,30.31,NNE,17,4.0,9.0,40,0.00,,,0.00,,2013-02-15 18:11:00,
2013-02-15 11:21:00,43.0,19.0,30.31,East,88,2.0,7.0,38,0.00,,,0.00,,2013-02-15 18:21:00,
2013-02-15 11:31:00,44.0,20.0,30.31,NNW,331,3.0,10.0,38,0.00,,,0.00,,2013-02-15 18:31:00,
2013-02-15 11:41:00,44.0,20.0,30.31,NNW,331,3.0,10.0,38,0.00,,,0.00,,2013-02-15 18:41:00,
2013-02-15 11:52:00,45.0,18.0,30.31,North,11,5.0,8.0,34,0.00,,,0.00,,2013-02-15 18:52:00,
2013-02-15 12:01:00,46.0,19.0,30.31,ESE,105,3.0,10.0,33,0.00,,,0.00,,2013-02-15 19:01:00,
2013-02-15 12:11:00,46.0,19.0,30.31,ESE,105,3.0,10.0,33,0.00,,,0.00,,2013-02-15 19:11:00,
2013-02-15 12:21:00,47.0,17.0,30.30,ENE,69,4.0,9.0,30,0.00,,,0.00,,2013-02-15 19:21:00,
2013-02-15 12:31:00,47.0,16.0,30.31,ESE,117,1.0,10.0,29,0.00,,,0.00,,2013-02-15 19:31:00,
2013-02-15 12:41:00,47.0,16.0,30.31,ESE,117,1.0,10.0,29,0.00,,,0.00,,2013-02-15 19:41:00,
2013-02-15 12:52:00,50.0,18.0,30.30,NE,56,2.0,5.0,28,0.00,,,0.00,,2013-02-15 19:52:00,
2013-02-15 13:01:00,50.0,17.0,30.30,ESE,115,4.0,10.0,27,0.00,,,0.00,,2013-02-15 20:01:00,
2013-02-15 13:11:00,50.0,17.0,30.30,ESE,115,4.0,10.0,27,0.00,,,0.00,,2013-02-15 20:11:00,
2013-02-15 13:21:00,51.0,17.0,30.29,NE,53,3.0,8.0,26,0.00,,,0.00,,2013-02-15 20:21:00,
2013-02-15 13:32:00,52.0,19.0,30.28,East,94,2.0,8.0,27,0.00,,,0.00,,2013-02-15 20:32:00,
2013-02-15 13:42:00,52.0,19.0,30.28,East,94,2.0,8.0,27,0.00,,,0.00,,2013-02-15 20:42:00,
2013-02-15 13:52:00,53.0,16.0,30.27,NNE,26,5.0,10.0,23,0.00,,,0.00,,2013-02-15 20:52:00,
2013-02-15 14:01:00,54.0,17.0,30.27,ENE,64,4.0,7.0,23,0.00,,,0.00,,2013-02-15 21:01:00,
2013-02-15 14:11:00,54.0,17.0,30.27,ENE,64,4.0,7.0,23,0.00,,,0.00,,2013-02-15 21:11:00,
2013-02-15 14:21:00,54.0,17.0,30.29,NNE,22,3.0,7.0,23,0.00,,,0.00,,2013-02-15 21:21:00,
2013-02-15 14:31:00,54.0,18.0,30.28,ESE,119,2.0,8.0,24,0.00,,,0.00,,2013-02-15 21:31:00,
2013-02-15 14:42:00,54.0,18.0,30.28,ESE,119,2.0,8.0,24,0.00,,,0.00,,2013-02-15 21:42:00,
2013-02-15 14:52:00,55.0,17.0,30.29,NNE,26,6.0,11.0,22,0.00,,,0.00,,2013-02-15 21:52:00,
2013-02-15 15:01:00,55.0,18.0,30.28,NNW,344,3.0,7.0,23,0.00,,,0.00,,2013-02-15 22:01:00,
2013-02-15 15:11:00,55.0,12.0,30.28,NE,36,4.0,12.0,18,0.00,,,0.00,,2013-02-15 22:11:00,
2013-02-15 15:21:00,55.0,12.0,30.28,NE,36,4.0,12.0,18,0.00,,,0.00,,2013-02-15 22:21:00,
2013-02-15 15:31:00,55.0,12.0,30.28,ESE,117,7.0,13.0,18,0.00,,,0.00,,2013-02-15 22:31:00,
2013-02-15 15:41:00,55.0,12.0,30.28,ESE,117,7.0,13.0,18,0.00,,,0.00,,2013-02-15 22:41:00,
2013-02-15 15:52:00,55.0,12.0,30.28,North,9,3.0,11.0,18,0.00,,,0.00,,2013-02-15 22:52:00,
2013-02-15 16:01:00,55.0,15.0,30.28,NW,323,5.0,9.0,20,0.00,,,0.00,,2013-02-15 23:01:00,
2013-02-15 16:11:00,55.0,15.0,30.28,NW,323,5.0,9.0,20,0.00,,,0.00,,2013-02-15 23:11:00,
2013-02-15 16:21:00,54.0,14.0,30.28,NNE,24,2.0,12.0,20,0.00,,,0.00,,2013-02-15 23:21:00,
2013-02-15 16:31:00,55.0,14.0,30.28,ENE,77,7.0,12.0,19,0.00,,,0.00,,2013-02-15 23:31:00,
2013-02-15 16:41:00,55.0,14.0,30.28,ENE,77,7.0,12.0,19,0.00,,,0.00,,2013-02-15 23:41:00,
2013-02-15 16:52:00,55.0,15.0,30.29,NNE,17,4.0,8.0,20,0.00,,,0.00,,2013-02-15 23:52:00,
2013-02-15 17:01:00,54.0,13.0,30.29,NE,34,7.0,12.0,19,0.00,,,0.00,,2013-02-16 00:01:00,
2013-02-15 17:11:00,54.0,13.0,30.29,NE,34,7.0,12.0,19,0.00,,,0.00,,2013-02-16 00:11:00,
2013-02-15 17:21:00,54.0,13.0,30.29,NNE,14,4.0,13.0,19,0.00,,,0.00,,2013-02-16 00:21:00,
2013-02-15 17:31:00,54.0,14.0,30.29,North,360,3.0,8.0,20,0.00,,,0.00,,2013-02-16 00:31:00,
2013-02-15 17:41:00,54.0,14.0,30.29,North,360,3.0,8.0,20,0.00,,,0.00,,2013-02-16 00:41:00,
2013-02-15 17:52:00,53.0,14.0,30.29,NE,35,4.0,7.0,21,0.00,,,0.00,,2013-02-16 00:52:00,
2013-02-15 18:01:00,53.0,14.0,30.29,NNE,13,4.0,6.0,21,0.00,,,0.00,,2013-02-16 01:01:00,
2013-02-15 18:11:00,53.0,14.0,30.29,NNE,13,4.0,6.0,21,0.00,,,0.00,,2013-02-16 01:11:00,
2013-02-15 18:21:00,52.0,14.0,30.29,NNE,15,0.0,3.0,22,0.00,,,0.00,,2013-02-16 01:21:00,
2013-02-15 18:31:00,50.0,14.0,30.29,NNE,13,0.0,1.0,23,0.00,,,0.00,,2013-02-16 01:31:00,
2013-02-15 18:41:00,50.0,14.0,30.29,NNE,13,0.0,1.0,23,0.00,,,0.00,,2013-02-16 01:41:00,
2013-02-15 18:52:00,46.0,14.0,30.29,SE,127,2.0,5.0,27,0.00,,,0.00,,2013-02-16 01:52:00,
2013-02-15 19:01:00,46.0,13.0,30.30,ESE,120,2.0,6.0,26,0.00,,,0.00,,2013-02-16 02:01:00,
2013-02-15 19:11:00,45.0,14.0,30.30,SE,130,0.0,1.0,28,0.00,,,0.00,,2013-02-16 02:11:00,
2013-02-15 19:21:00,45.0,14.0,30.30,SE,130,0.0,1.0,28,0.00,,,0.00,,2013-02-16 02:21:00,
2013-02-15 19:31:00,42.0,16.0,30.32,East,96,1.0,2.0,34,0.00,,,0.00,,2013-02-16 02:31:00,
2013-02-15 19:42:00,42.0,16.0,30.32,East,96,1.0,2.0,34,0.00,,,0.00,,2013-02-16 02:42:00,
2013-02-15 19:52:00,40.0,12.0,30.32,NNW,329,1.0,2.0,31,0.00,,,0.00,,2013-02-16 02:52:00,
2013-02-15 20:01:00,38.0,11.0,30.33,SSW,198,2.0,3.0,32,0.00,,,0.00,,2013-02-16 03:01:00,
2013-02-15 20:11:00,38.0,11.0,30.33,SSW,198,2.0,3.0,32,0.00,,,0.00,,2013-02-16 03:11:00,
2013-02-15 20:21:00,37.0,11.0,30.33,SSW,198,0.0,1.0,34,0.00,,,0.00,,2013-02-16 03:21:00,
2013-02-15 20:31:00,36.0,13.0,30.34,SSW,198,1.0,1.0,38,0.00,,,0.00,,2013-02-16 03:31:00,
2013-02-15 20:41:00,36.0,13.0,30.34,SSW,198,1.0,1.0,38,0.00,,,0.00,,2013-02-16 03:41:00,
2013-02-15 20:52:00,35.0,13.0,30.34,SSW,198,0.0,2.0,40,0.00,,,0.00,,2013-02-16 03:52:00,
2013-02-15 21:01:00,34.0,12.0,30.35,SSW,198,1.0,3.0,39,0.00,,,0.00,,2013-02-16 04:01:00,
2013-02-15 21:11:00,33.0,15.0,30.35,SE,132,0.0,2.0,46,0.00,,,0.00,,2013-02-16 04:11:00,
2013-02-15 21:21:00,33.0,15.0,30.35,SE,132,0.0,2.0,46,0.00,,,0.00,,2013-02-16 04:21:00,
2013-02-15 21:31:00,32.0,15.0,30.35,SE,132,0.0,2.0,48,0.00,,,0.00,,2013-02-16 04:31:00,
2013-02-15 21:41:00,32.0,15.0,30.35,SE,132,0.0,2.0,48,0.00,,,0.00,,2013-02-16 04:41:00,
2013-02-15 21:52:00,32.0,12.0,30.36,SE,132,0.0,1.0,42,0.00,,,0.00,,2013-02-16 04:52:00,
2013-02-15 22:01:00,33.0,10.0,30.36,SE,132,1.0,2.0,38,0.00,,,0.00,,2013-02-16 05:01:00,
2013-02-15 22:11:00,33.0,10.0,30.36,SE,132,1.0,2.0,38,0.00,,,0.00,,2013-02-16 05:11:00,
2013-02-15 22:21:00,34.0,11.0,30.37,SE,132,0.0,1.0,38,0.00,,,0.00,,2013-02-16 05:21:00,
2013-02-15 22:31:00,33.0,8.0,30.37,SE,135,1.0,4.0,35,0.00,,,0.00,,2013-02-16 05:31:00,
2013-02-15 22:42:00,33.0,8.0,30.37,SE,135,1.0,4.0,35,0.00,,,0.00,,2013-02-16 05:42:00,
2013-02-15 22:52:00,32.0,8.0,30.37,NW,306,2.0,3.0,36,0.00,,,0.00,,2013-02-16 05:52:00,
2013-02-15 23:01:00,34.0,9.0,30.37,NW,306,0.0,2.0,34,0.00,,,0.00,,2013-02-16 06:01:00,
2013-02-15 23:11:00,34.0,9.0,30.37,NW,306,0.0,2.0,34,0.00,,,0.00,,2013-02-16 06:11:00,
2013-02-15 23:21:00,32.0,7.0,30.37,NW,306,0.0,2.0,34,0.00,,,0.00,,2013-02-16 06:21:00,
2013-02-15 23:32:00,32.0,7.0,30.35,West,272,1.0,3.0,34,0.00,,,0.00,,2013-02-16 06:32:00,
2013-02-15 23:41:00,32.0,7.0,30.35,West,272,1.0,3.0,34,0.00,,,0.00,,2013-02-16 06:41:00,
2013-02-15 23:52:00,32.0,6.0,30.35,SSW,213,0.0,3.0,32,0.00,,,0.00,,2013-02-16 06:52:00,